Time;durP1;ratioP1;P1;durP2;ratioP2;P2;SDS_P1;SDS_P2;PMS_P1;PMS_P2;Temp;Humidity;BMP_temperature;BMP_pressure;BME280_temperature;BME280_humidity;BME280_pressure;Samples;Min_cycle;Max_cycle;Signal;HPM_P1;HPM_P2
2022/04/18 00:02:18;;;;;;;14.38;9.75;;;;;;;;;;4739962;30;20466;-89
2022/04/18 00:04:44;;;;;;;13.13;9.13;;;;;;;;;;4740036;30;20056;-92
2022/04/18 00:07:10;;;;;;;13.80;10.05;;;;;;;;;;4739451;30;20114;-89
2022/04/18 00:09:38;;;;;;;13.23;9.75;;;;;;;;;;4725194;30;20044;-90
2022/04/18 00:12:04;;;;;;;18.17;9.48;;;;;;;;;;4753468;30;20135;-91
2022/04/18 00:14:30;;;;;;;14.45;9.40;;;;;;;;;;4738169;30;20063;-92
2022/04/18 00:16:57;;;;;;;19.27;9.93;;;;;;;;;;4737859;30;20100;-90
2022/04/18 00:19:23;;;;;;;18.63;9.85;;;;;;;;;;4723052;30;20049;-87
2022/04/18 00:21:50;;;;;;;14.43;10.00;;;;;;;;;;4737506;30;20201;-90
2022/04/18 00:24:17;;;;;;;15.52;9.48;;;;;;;;;;4737961;30;20095;-92
2022/04/18 00:26:44;;;;;;;16.52;10.57;;;;;;;;;;4737921;30;20131;-92
2022/04/18 00:29:10;;;;;;;15.88;10.82;;;;;;;;;;4723572;30;20048;-90
2022/04/18 00:31:36;;;;;;;17.63;10.68;;;;;;;;;;4723583;30;20053;-92
2022/04/18 00:34:03;;;;;;;12.80;9.43;;;;;;;;;;4724178;30;20502;-92
2022/04/18 00:36:29;;;;;;;14.18;11.35;;;;;;;;;;4738744;30;20741;-91
2022/04/18 00:38:55;;;;;;;12.63;9.30;;;;;;;;;;4737990;30;20100;-93
2022/04/18 00:41:21;;;;;;;13.23;10.48;;;;;;;;;;4738701;30;20041;-91
2022/04/18 00:43:48;;;;;;;14.18;9.73;;;;;;;;;;4737166;30;20052;-88
2022/04/18 00:46:15;;;;;;;18.15;10.63;;;;;;;;;;4736146;30;20139;-89
2022/04/18 00:48:41;;;;;;;15.70;10.35;;;;;;;;;;4736638;30;20041;-89
2022/04/18 00:51:10;;;;;;;15.52;10.43;;;;;;;;;;4722211;30;20143;-92
2022/04/18 00:53:37;;;;;;;14.07;10.05;;;;;;;;;;4751013;30;20109;-95
2022/04/18 00:56:04;;;;;;;14.35;10.32;;;;;;;;;;4735871;30;20049;-88
2022/04/18 00:58:31;;;;;;;16.20;11.10;;;;;;;;;;4721052;30;20045;-88
2022/04/18 01:00:57;;;;;;;15.75;10.55;;;;;;;;;;4735856;30;20048;-86
2022/04/18 01:03:23;;;;;;;15.05;9.90;;;;;;;;;;4721259;30;20570;-87
2022/04/18 01:05:49;;;;;;;15.48;10.45;;;;;;;;;;4735323;30;20048;-86
2022/04/18 01:08:16;;;;;;;15.30;10.88;;;;;;;;;;4735551;30;20053;-90
2022/04/18 01:10:42;;;;;;;16.02;10.43;;;;;;;;;;4721557;30;20045;-92
2022/04/18 01:13:08;;;;;;;15.93;11.02;;;;;;;;;;4736650;30;20114;-91
2022/04/18 01:15:34;;;;;;;18.45;11.73;;;;;;;;;;4737647;30;20052;-87
2022/04/18 01:18:00;;;;;;;13.23;10.32;;;;;;;;;;4736539;30;20044;-91
2022/04/18 01:20:34;;;;;;;15.93;11.27;;;;;;;;;;4736159;30;20049;-88
2022/04/18 01:23:01;;;;;;;16.08;11.27;;;;;;;;;;4736236;30;20041;-91
2022/04/18 01:30:56;;;;;;;15.48;10.75;;;;;;;;;;4721772;30;20122;-88
2022/04/18 01:33:22;;;;;;;17.35;10.98;;;;;;;;;;4721400;30;20083;-91
2022/04/18 01:35:48;;;;;;;15.32;10.52;;;;;;;;;;4736042;30;20056;-90
2022/04/18 01:38:15;;;;;;;18.30;10.63;;;;;;;;;;4734999;30;20056;-94
2022/04/18 01:40:41;;;;;;;15.20;11.88;;;;;;;;;;4721224;30;20056;-90
2022/04/18 01:43:07;;;;;;;13.70;10.15;;;;;;;;;;4735656;30;20156;-87
2022/04/18 01:45:34;;;;;;;17.02;11.57;;;;;;;;;;4735737;30;20059;-90
2022/04/18 01:48:01;;;;;;;16.55;11.18;;;;;;;;;;4751596;30;20418;-86
2022/04/18 01:50:27;;;;;;;15.95;11.57;;;;;;;;;;4738222;30;20447;-92
2022/04/18 01:52:53;;;;;;;20.35;11.20;;;;;;;;;;4751487;30;20115;-91
2022/04/18 01:55:19;;;;;;;18.55;11.85;;;;;;;;;;4737940;30;20048;-95
2022/04/18 01:57:45;;;;;;;18.58;11.60;;;;;;;;;;4736416;30;20052;-93
2022/04/18 02:00:11;;;;;;;17.15;11.13;;;;;;;;;;4750743;30;20135;-92
2022/04/18 02:02:37;;;;;;;15.63;10.35;;;;;;;;;;4751400;30;20052;-92
2022/04/18 02:05:07;;;;;;;15.65;11.95;;;;;;;;;;4737864;30;20056;-92
2022/04/18 02:07:33;;;;;;;16.55;11.25;;;;;;;;;;4737927;30;20051;-92
2022/04/18 02:09:59;;;;;;;17.88;11.05;;;;;;;;;;4722309;30;20052;-91
2022/04/18 02:12:25;;;;;;;14.63;10.93;;;;;;;;;;4737488;30;20060;-92
2022/04/18 02:14:51;;;;;;;16.42;10.65;;;;;;;;;;4737808;30;20072;-93
2022/04/18 02:17:17;;;;;;;17.98;10.95;;;;;;;;;;4751047;30;20060;-94
2022/04/18 02:19:44;;;;;;;16.02;10.93;;;;;;;;;;4721120;30;20057;-91
2022/04/18 02:22:12;;;;;;;18.83;11.57;;;;;;;;;;4736317;30;20046;-91
2022/04/18 02:24:39;;;;;;;16.55;11.32;;;;;;;;;;4721782;30;20134;-90
2022/04/18 02:27:06;;;;;;;13.80;10.10;;;;;;;;;;4751636;30;20705;-90
2022/04/18 02:29:32;;;;;;;12.45;10.15;;;;;;;;;;4736848;30;20052;-89
2022/04/18 02:34:44;;;;;;;14.85;11.25;;;;;;;;;;4721956;30;20120;-89
2022/04/18 02:37:10;;;;;;;16.85;11.82;;;;;;;;;;4722645;30;20052;-88
2022/04/18 02:39:36;;;;;;;13.07;10.13;;;;;;;;;;4720248;30;20052;-87
2022/04/18 02:42:03;;;;;;;17.15;12.38;;;;;;;;;;4720480;30;20147;-87
2022/04/18 02:44:29;;;;;;;17.73;11.98;;;;;;;;;;4719568;30;20052;-94
2022/04/18 02:46:55;;;;;;;15.18;11.70;;;;;;;;;;4719212;30;20059;-86
2022/04/18 02:49:21;;;;;;;15.20;11.25;;;;;;;;;;4719698;30;20394;-89
2022/04/18 02:51:47;;;;;;;17.58;11.98;;;;;;;;;;4720444;30;20048;-87
2022/04/18 02:54:13;;;;;;;18.00;11.35;;;;;;;;;;4719614;30;20406;-91
2022/04/18 02:56:39;;;;;;;16.98;11.00;;;;;;;;;;4719703;30;20380;-87
2022/04/18 02:59:05;;;;;;;17.52;12.15;;;;;;;;;;4737105;30;20059;-92
2022/04/18 03:01:31;;;;;;;19.90;12.18;;;;;;;;;;4730415;30;20495;-89
2022/04/18 03:03:57;;;;;;;16.15;12.15;;;;;;;;;;4737647;30;20059;-92
2022/04/18 03:06:23;;;;;;;14.95;11.48;;;;;;;;;;4738402;30;20052;-93
2022/04/18 03:08:49;;;;;;;20.60;11.25;;;;;;;;;;4738903;30;20056;-90
2022/04/18 03:11:16;;;;;;;16.10;11.40;;;;;;;;;;4738656;30;20067;-91
2022/04/18 03:13:45;;;;;;;13.85;11.32;;;;;;;;;;4737088;30;20100;-95
2022/04/18 03:16:12;;;;;;;16.27;12.10;;;;;;;;;;4739101;30;20052;-94
2022/04/18 03:18:38;;;;;;;21.40;12.18;;;;;;;;;;4739211;30;20475;-93
2022/04/18 03:21:04;;;;;;;14.93;11.20;;;;;;;;;;4738463;30;20078;-90
2022/04/18 03:23:31;;;;;;;19.88;12.38;;;;;;;;;;4737501;30;20059;-96
2022/04/18 03:25:57;;;;;;;18.30;12.35;;;;;;;;;;4741753;30;20060;-93
2022/04/18 03:28:23;;;;;;;14.40;11.27;;;;;;;;;;4758075;30;20145;-93
2022/04/18 03:30:49;;;;;;;17.35;11.15;;;;;;;;;;4757718;30;20044;-95
2022/04/18 03:33:15;;;;;;;18.80;11.27;;;;;;;;;;4751405;30;20057;-96
2022/04/18 03:41:11;;;;;;;14.52;11.63;;;;;;;;;;4723905;30;20063;-94
2022/04/18 03:43:38;;;;;;;16.65;12.10;;;;;;;;;;4739318;30;20465;-93
2022/04/18 03:46:04;;;;;;;17.88;13.05;;;;;;;;;;4739671;30;20053;-91
2022/04/18 03:48:30;;;;;;;20.98;13.88;;;;;;;;;;4723107;30;20080;-91
2022/04/18 03:50:57;;;;;;;21.33;13.45;;;;;;;;;;4724350;30;20076;-94
2022/04/18 03:53:23;;;;;;;17.02;12.25;;;;;;;;;;4723684;30;20073;-92
2022/04/18 03:55:49;;;;;;;16.17;12.25;;;;;;;;;;4723874;30;20400;-96
2022/04/18 03:58:15;;;;;;;18.90;12.30;;;;;;;;;;4722868;30;20570;-92
2022/04/18 04:00:44;;;;;;;18.17;11.77;;;;;;;;;;4723448;30;20061;-91
2022/04/18 04:03:10;;;;;;;14.90;11.65;;;;;;;;;;4723425;30;20135;-89
2022/04/18 04:05:37;;;;;;;18.55;12.68;;;;;;;;;;4723241;30;20056;-91
2022/04/18 04:08:03;;;;;;;16.10;11.80;;;;;;;;;;4722670;30;20059;-91
2022/04/18 04:10:29;;;;;;;18.15;13.00;;;;;;;;;;4723231;30;20095;-89
2022/04/18 04:12:55;;;;;;;18.33;12.23;;;;;;;;;;4739377;30;20053;-93
2022/04/18 04:15:22;;;;;;;17.77;11.93;;;;;;;;;;4738584;30;20048;-94
2022/04/18 04:17:48;;;;;;;18.08;12.13;;;;;;;;;;4739270;30;20450;-96
2022/04/18 04:20:14;;;;;;;16.25;12.10;;;;;;;;;;4738791;30;20080;-96
2022/04/18 04:22:48;;;;;;;17.63;12.23;;;;;;;;;;4723443;30;20435;-90
2022/04/18 04:25:15;;;;;;;19.25;12.13;;;;;;;;;;4722542;30;20053;-90
2022/04/18 04:27:41;;;;;;;15.90;11.95;;;;;;;;;;4723953;30;20143;-90
2022/04/18 04:30:07;;;;;;;15.75;12.13;;;;;;;;;;4712998;30;20084;-89
2022/04/18 04:32:34;;;;;;;18.60;13.30;;;;;;;;;;4723984;30;20139;-93
2022/04/18 04:35:00;;;;;;;16.15;12.35;;;;;;;;;;4723779;30;20060;-93
2022/04/18 04:37:26;;;;;;;16.63;12.68;;;;;;;;;;4739041;30;20088;-92
2022/04/18 04:39:52;;;;;;;18.35;12.35;;;;;;;;;;4739128;30;20055;-95
2022/04/18 04:42:19;;;;;;;20.17;12.30;;;;;;;;;;4723991;30;20049;-90
2022/04/18 04:44:45;;;;;;;14.65;11.65;;;;;;;;;;4724110;30;20092;-95
2022/04/18 04:47:11;;;;;;;16.63;11.63;;;;;;;;;;4723883;30;20509;-92
2022/04/18 04:49:38;;;;;;;18.13;12.75;;;;;;;;;;4738889;30;20495;-91
2022/04/18 04:52:05;;;;;;;18.30;11.85;;;;;;;;;;4723309;30;20049;-93
2022/04/18 04:54:31;;;;;;;19.17;13.18;;;;;;;;;;4723112;30;20518;-95
2022/04/18 04:56:57;;;;;;;18.17;12.77;;;;;;;;;;4723914;30;20575;-92
2022/04/18 04:59:23;;;;;;;19.95;12.43;;;;;;;;;;4738635;30;20048;-91
2022/04/18 05:01:50;;;;;;;19.38;12.23;;;;;;;;;;4738999;30;20056;-93
2022/04/18 05:04:16;;;;;;;18.17;12.18;;;;;;;;;;4723604;30;20051;-92
2022/04/18 05:06:42;;;;;;;21.63;12.57;;;;;;;;;;4739378;30;20057;-92
2022/04/18 05:09:08;;;;;;;15.07;11.60;;;;;;;;;;4739298;30;20065;-95
2022/04/18 05:11:34;;;;;;;18.33;12.02;;;;;;;;;;4723196;30;20063;-91
2022/04/18 05:14:00;;;;;;;18.67;11.48;;;;;;;;;;4723843;30;20063;-92
2022/04/18 05:16:26;;;;;;;18.65;12.05;;;;;;;;;;4723120;30;20055;-90
2022/04/18 05:18:52;;;;;;;19.35;11.65;;;;;;;;;;4720334;30;20068;-91
2022/04/18 05:21:18;;;;;;;15.27;11.40;;;;;;;;;;4719600;30;20081;-90
2022/04/18 05:23:45;;;;;;;17.98;11.27;;;;;;;;;;4720652;30;20495;-92
2022/04/18 05:26:11;;;;;;;17.80;11.35;;;;;;;;;;4734456;30;20092;-89
2022/04/18 05:28:37;;;;;;;15.70;12.30;;;;;;;;;;4735431;30;20114;-89
2022/04/18 05:31:03;;;;;;;19.08;12.52;;;;;;;;;;4719193;30;20048;-87
2022/04/18 05:33:29;;;;;;;19.80;11.82;;;;;;;;;;4704723;30;20510;-89
2022/04/18 05:35:55;;;;;;;17.15;11.00;;;;;;;;;;4710758;30;20478;-93
2022/04/18 05:38:21;;;;;;;18.30;11.20;;;;;;;;;;4726411;30;20063;-89
2022/04/18 05:40:47;;;;;;;17.63;11.02;;;;;;;;;;4718036;30;20048;-87
2022/04/18 05:43:15;;;;;;;13.43;11.48;;;;;;;;;;4733084;30;20053;-88
2022/04/18 05:45:41;;;;;;;23.88;11.30;;;;;;;;;;4733143;30;20053;-89
2022/04/18 05:48:07;;;;;;;18.58;11.48;;;;;;;;;;4735237;30;20059;-91
2022/04/18 05:50:33;;;;;;;17.83;11.23;;;;;;;;;;4734914;30;20087;-93
2022/04/18 05:52:59;;;;;;;15.02;10.10;;;;;;;;;;4749957;30;20082;-89
2022/04/18 05:55:25;;;;;;;15.30;10.98;;;;;;;;;;4735640;30;20510;-88
2022/04/18 05:57:54;;;;;;;17.70;10.70;;;;;;;;;;4735721;30;20052;-91
2022/04/18 06:00:21;;;;;;;13.98;10.77;;;;;;;;;;4721887;30;20098;-86
2022/04/18 06:02:47;;;;;;;15.05;11.40;;;;;;;;;;4718371;30;20068;-88
2022/04/18 06:05:13;;;;;;;17.10;11.05;;;;;;;;;;4717805;30;20110;-93
2022/04/18 06:07:39;;;;;;;19.20;11.30;;;;;;;;;;4717537;30;20060;-91
2022/04/18 06:10:05;;;;;;;14.93;10.75;;;;;;;;;;4724094;30;20052;-88
2022/04/18 06:12:33;;;;;;;15.90;10.55;;;;;;;;;;4745665;24;20411;-87
2022/04/18 06:14:59;;;;;;;16.92;11.50;;;;;;;;;;4731443;24;20049;-88
2022/04/18 06:17:26;;;;;;;16.23;11.85;;;;;;;;;;4743158;24;20049;-89
2022/04/18 06:19:52;;;;;;;17.38;11.95;;;;;;;;;;4736030;30;20048;-85
2022/04/18 06:22:18;;;;;;;19.73;12.63;;;;;;;;;;4744947;24;20152;-91
2022/04/18 06:24:44;;;;;;;15.63;11.38;;;;;;;;;;4737144;30;20414;-86
2022/04/18 06:27:11;;;;;;;17.45;10.82;;;;;;;;;;4743357;24;20048;-89
2022/04/18 06:29:37;;;;;;;16.35;11.23;;;;;;;;;;4721457;30;20052;-93
2022/04/18 06:32:07;;;;;;;13.35;9.77;;;;;;;;;;4722915;30;20061;-93
2022/04/18 06:34:33;;;;;;;14.80;10.48;;;;;;;;;;4721289;30;20122;-88
2022/04/18 06:36:59;;;;;;;13.73;10.30;;;;;;;;;;4718993;30;20509;-89
2022/04/18 06:39:25;;;;;;;17.20;11.07;;;;;;;;;;4719619;30;20598;-85
2022/04/18 06:41:51;;;;;;;16.05;10.57;;;;;;;;;;4723197;30;20056;-92
2022/04/18 06:44:22;;;;;;;12.45;9.52;;;;;;;;;;4722649;30;20056;-94
2022/04/18 06:46:48;;;;;;;15.88;9.68;;;;;;;;;;4722511;30;20515;-94
2022/04/18 06:49:17;;;;;;;14.15;9.98;;;;;;;;;;4721642;30;20045;-92
2022/04/18 06:51:43;;;;;;;15.82;9.60;;;;;;;;;;4721727;30;20057;-93
2022/04/18 06:54:18;;;;;;;14.88;10.15;;;;;;;;;;4721510;30;20071;-91
2022/04/18 06:56:59;;;;;;;20.50;9.63;;;;;;;;;;4721640;30;20056;-93
2022/04/18 06:59:37;;;;;;;13.48;9.48;;;;;;;;;;4715610;30;20053;-93
2022/04/18 07:02:09;;;;;;;16.83;9.07;;;;;;;;;;4707109;30;20113;-92
2022/04/18 07:04:38;;;;;;;14.73;9.52;;;;;;;;;;4721054;30;20056;-93
2022/04/18 07:07:08;;;;;;;15.00;8.90;;;;;;;;;;4707076;30;20507;-93
2022/04/18 07:10:07;;;;;;;12.63;8.82;;;;;;;;;;4707136;30;20049;-94
2022/04/18 07:12:33;;;;;;;17.70;10.00;;;;;;;;;;4703292;30;20536;-94
2022/04/18 07:15:13;;;;;;;13.75;9.38;;;;;;;;;;4675244;30;20500;-93
2022/04/18 07:17:39;;;;;;;;;;;9.20;99.90;;;;;;4693650;30;20139;-93
2022/04/18 07:20:05;;;;;;;15.02;9.18;;;;;;;;;;4689380;30;20477;-92
2022/04/18 07:23:10;;;;;;;12.45;9.93;;;;;;;;;;4686670;30;20628;-94
2022/04/18 07:25:48;;;;;;;13.88;10.00;;;;;;;;;;4670544;30;20112;-95
2022/04/18 07:28:17;;;;;;;13.43;9.13;;;;;;;;;;4670290;30;20239;-94
2022/04/18 07:30:52;;;;;;;13.20;9.27;;;;;;;;;;4684498;30;20056;-91
2022/04/18 07:33:18;;;;;;;17.98;9.23;;;;;;;;;;4704322;24;20064;-91
2022/04/18 07:35:44;;;;;;;15.55;9.93;;;;;;;;;;4741384;30;20135;-93
2022/04/18 07:40:56;;;;;;;13.60;9.60;;;;;;;;;;4741224;30;20064;-91
2022/04/18 07:43:22;;;;;;;10.63;8.25;;;;;;;;;;4739636;30;20052;-85
2022/04/18 07:45:51;;;;;;;16.73;9.43;;;;;;;;;;4738099;30;20525;-93
2022/04/18 07:48:17;;;;;;;9.65;7.90;;;;;;;;;;4747655;30;20075;-92
2022/04/18 07:53:48;;;;;;;11.43;8.05;;;;;;;;;;4755821;30;20060;-94
2022/04/18 07:56:25;;;;;;;9.82;7.45;;;;;;;;;;4740424;30;20114;-93
2022/04/18 07:58:54;;;;;;;9.95;8.20;;;;;;;;;;4735482;30;20265;-93
2022/04/18 08:01:30;;;;;;;10.85;7.30;;;;;;;;;;4723397;30;20048;-93
2022/04/18 08:07:34;;;;;;;12.55;7.38;;;;;;;;;;4685909;30;20060;-92
2022/04/18 08:10:01;;;;;;;12.50;7.82;;;;;;;;;;4686855;30;20583;-93
2022/04/18 08:15:33;;;;;;;8.90;7.13;;;;;;;;;;4808033;24;20060;-91
2022/04/18 08:54:06;;;;;;;9.38;6.82;;;;;;;;;;4740015;30;20144;-87
2022/04/18 08:56:35;;;;;;;15.38;6.80;;;;;;;;;;4725171;30;20052;-86
2022/04/18 08:59:04;;;;;;;9.07;6.88;;;;;;;;;;4727268;30;20499;-87
2022/04/18 09:01:30;;;;;;;10.50;6.93;;;;;;;;;;4754329;30;20086;-87
2022/04/18 09:04:11;;;;;;;9.77;6.65;;;;;;;;;;4724278;30;20392;-87
2022/04/18 09:06:42;;;;;;;11.90;6.63;;;;;;;;;;4737144;30;20143;-87
2022/04/18 09:09:08;;;;;;;7.60;6.35;;;;;;;;;;4723428;30;20055;-88
2022/04/18 09:11:38;;;;;;;9.60;7.10;;;;;;;;;;4722500;30;20066;-87
2022/04/18 09:14:08;;;;;;;9.63;7.95;;;;;;;;;;4723526;30;20609;-87
2022/04/18 09:16:35;;;;;;;9.13;6.13;;;;;;;;;;4723708;30;20147;-88
2022/04/18 09:19:06;;;;;;;9.88;6.75;;;;;;;;;;4724380;30;20063;-88
2022/04/18 09:21:33;;;;;;;7.78;6.32;;;;;;;;;;4722670;30;20067;-88
2022/04/18 09:23:59;;;;;;;9.43;5.93;;;;;;;;;;4738311;30;20109;-88
2022/04/18 09:26:25;;;;;;;13.13;7.50;;;;;;;;;;4722594;30;20060;-88
2022/04/18 09:28:51;;;;;;;9.07;7.30;;;;;;;;;;4722607;30;20131;-88
2022/04/18 09:31:19;;;;;;;9.10;6.95;;;;;;;;;;4721484;30;20075;-88
2022/04/18 09:33:58;;;;;;;9.18;6.60;;;;;;;;;;4722684;30;20048;-87
2022/04/18 09:36:24;;;;;;;9.85;7.28;;;;;;;;;;4722523;30;20055;-87
2022/04/18 09:38:52;;;;;;;13.98;6.63;;;15.00;99.90;;;;;;4737023;30;20059;-88
2022/04/18 09:41:25;;;;;;;8.45;6.78;;;14.80;99.90;;;;;;4713993;30;20060;-88
2022/04/18 09:43:54;;;;;;;11.33;5.80;;;15.30;99.90;;;;;;4727707;30;20056;-87
2022/04/18 09:46:22;;;;;;;7.95;5.75;;;15.10;99.90;;;;;;4737109;30;20051;-88
2022/04/18 09:48:49;;;;;;;8.23;7.03;;;;;;;;;;4716692;30;20044;-88
2022/04/18 09:51:25;;;;;;;8.52;5.90;;;15.50;99.90;;;;;;4736558;30;20087;-88
2022/04/18 09:53:52;;;;;;;6.22;5.40;;;;;;;;;;4736219;30;20100;-88
2022/04/18 09:56:20;;;;;;;8.40;6.50;;;;;;;;;;4736455;30;20060;-88
2022/04/18 09:58:46;;;;;;;7.38;5.75;;;;;;;;;;4721053;30;20051;-88
2022/04/18 10:01:13;;;;;;;6.78;5.32;;;15.90;99.90;;;;;;4722554;30;20052;-88
2022/04/18 10:03:41;;;;;;;7.95;5.85;;;15.70;99.90;;;;;;4722852;30;20052;-88
2022/04/18 10:06:10;;;;;;;7.55;5.90;;;15.90;99.90;;;;;;4723128;30;20418;-86
2022/04/18 10:08:39;;;;;;;7.38;5.50;;;16.00;99.90;;;;;;4721171;30;20049;-86
2022/04/18 10:11:08;;;;;;;16.75;5.47;;;16.10;99.90;;;;;;4723266;30;20078;-86
2022/04/18 10:13:35;;;;;;;8.45;5.97;;;;;;;;;;4723602;30;20131;-86
2022/04/18 10:16:01;;;;;;;9.18;5.90;;;16.10;99.90;;;;;;4723039;30;20144;-86
2022/04/18 10:18:30;;;;;;;7.13;5.63;;;;;;;;;;4723250;30;20048;-86
2022/04/18 10:21:08;;;;;;;5.00;4.50;;;16.30;99.90;;;;;;4722327;30;20048;-85
2022/04/18 10:23:40;;;;;;;9.65;5.72;;;;;;;;;;4723372;30;20147;-86
2022/04/18 10:26:06;;;;;;;5.63;4.82;;;;;;;;;;4723054;30;20052;-86
2022/04/18 10:28:38;;;;;;;7.15;5.63;;;16.50;99.90;;;;;;4737846;30;20044;-87
2022/04/18 10:31:15;;;;;;;7.88;4.35;;;16.40;99.90;;;;;;4697436;30;20075;-87
2022/04/18 10:33:43;;;;;;;7.28;4.80;;;16.60;99.90;;;;;;4719554;30;20052;-88
2022/04/18 10:36:10;;;;;;;6.72;5.00;;;;;;;;;;4704871;30;20143;-86
2022/04/18 10:38:37;;;;;;;7.38;5.68;;;16.90;99.90;;;;;;4719202;30;20426;-87
2022/04/18 10:41:16;;;;;;;10.35;5.07;;;;;;;;;;4735161;30;20078;-88
2022/04/18 10:43:54;;;;;;;10.73;5.22;;;;;;;;;;4722506;30;20515;-85
2022/04/18 10:46:21;;;;;;;6.38;5.38;;;17.00;99.90;;;;;;4705418;30;20053;-86
2022/04/18 10:48:57;;;;;;;6.80;4.72;;;17.00;99.90;;;;;;4719358;30;20080;-88
2022/04/18 10:51:43;;;;;;;8.20;5.63;;;17.10;99.90;;;;;;4719415;30;20052;-89
2022/04/18 10:54:09;;;;;;;5.13;4.20;;;;;;;;;;4718563;30;20064;-88
2022/04/18 10:56:52;;;;;;;4.07;3.55;;;17.40;99.90;;;;;;4704392;30;20418;-88
2022/04/18 10:59:20;;;;;;;10.27;4.72;;;17.30;99.90;;;;;;4704354;30;20058;-85
2022/04/18 11:01:46;;;;;;;5.07;4.13;;;;;;;;;;4704750;30;20064;-90
2022/04/18 11:04:12;;;;;;;4.53;3.65;;;;;;;;;;4718785;30;20084;-88
2022/04/18 11:06:39;;;;;;;3.70;3.35;;;;;;;;;;4704041;30;20048;-90
2022/04/18 11:09:09;;;;;;;5.00;3.80;;;17.50;99.90;;;;;;4704247;30;20056;-86
2022/04/18 11:11:39;;;;;;;4.78;4.00;;;17.50;99.90;;;;;;4719850;30;20052;-88
2022/04/18 11:14:20;;;;;;;5.18;4.00;;;17.60;99.90;;;;;;4718839;30;20060;-88
2022/04/18 11:16:46;;;;;;;3.95;2.92;;;18.00;99.90;;;;;;4704483;30;20494;-88
2022/04/18 11:19:14;;;;;;;3.20;2.90;;;17.90;99.90;;;;;;4704647;30;20126;-86
2022/04/18 11:24:54;;;;;;;4.15;3.33;;;18.00;99.90;;;;;;4740680;30;20084;-88
2022/04/18 11:27:26;;;;;;;4.53;3.55;;;18.20;99.90;;;;;;4719418;30;20052;-89
2022/04/18 11:29:57;;;;;;;7.90;4.40;;;18.30;99.90;;;;;;4721354;30;20135;-88
2022/04/18 11:32:29;;;;;;;3.00;2.70;;;18.30;99.90;;;;;;4721475;30;20070;-86
2022/04/18 11:34:58;;;;;;;3.70;3.17;;;18.20;99.90;;;;;;4748569;30;20076;-88
2022/04/18 11:37:33;;;;;;;4.22;3.78;;;18.50;99.50;;;;;;4745390;30;20141;-90
2022/04/18 11:40:04;;;;;;;4.18;3.78;;;18.40;99.90;;;;;;4735642;30;20048;-87
2022/04/18 11:42:33;;;;;;;4.35;3.45;;;;;;;;;;4721130;30;20052;-86
2022/04/18 11:45:02;;;;;;;3.83;3.42;;;18.70;99.90;;;;;;4721963;30;20115;-88
2022/04/18 11:47:35;;;;;;;3.90;3.40;;;18.80;99.90;;;;;;4724168;30;20151;-88
2022/04/18 11:50:02;;;;;;;10.20;4.57;;;18.70;99.90;;;;;;4722290;30;20051;-88
2022/04/18 11:52:37;;;;;;;5.05;4.15;;;18.60;99.90;;;;;;4713128;30;20503;-89
2022/04/18 11:55:15;;;;;;;4.20;3.50;;;18.80;98.80;;;;;;4707699;30;20056;-89
2022/04/18 11:57:45;;;;;;;5.65;4.22;;;18.90;99.90;;;;;;4707276;30;20056;-89
2022/04/18 12:00:13;;;;;;;4.40;3.80;;;18.70;99.20;;;;;;4721668;30;20136;-88
2022/04/18 12:08:18;;;;;;;4.18;3.78;;;18.80;98.80;;;;;;4739564;30;20071;-89
2022/04/18 12:10:45;;;;;;;4.43;3.38;;;;;;;;;;4738675;30;20421;-89
2022/04/18 12:13:13;;;;;;;4.75;3.58;;;18.90;97.90;;;;;;4722600;30;20040;-88
2022/04/18 12:15:43;;;;;;;4.55;3.38;;;19.20;99.00;;;;;;4723391;30;20052;-88
2022/04/18 12:18:15;;;;;;;7.32;3.95;;;19.00;97.20;;;;;;4738646;30;20240;-88
2022/04/18 12:20:45;;;;;;;6.70;4.40;;;19.00;97.40;;;;;;4723915;30;20056;-87
2022/04/18 12:23:26;;;;;;;11.48;4.57;;;19.30;97.20;;;;;;4713066;30;20514;-86
2022/04/18 12:25:54;;;;;;;5.30;3.53;;;19.50;98.20;;;;;;4720483;30;20052;-87
2022/04/18 12:28:23;;;;;;;4.38;3.47;;;19.30;98.00;;;;;;4720407;30;20059;-88
2022/04/18 12:30:49;;;;;;;3.55;2.90;;;;;;;;;;4728645;30;20055;-85
2022/04/18 12:33:24;;;;;;;6.32;3.42;;;19.50;97.00;;;;;;4723829;30;20051;-86
2022/04/18 12:35:52;;;;;;;5.25;4.05;;;19.70;97.70;;;;;;4724396;30;20055;-87
2022/04/18 12:38:28;;;;;;;4.80;3.45;;;19.90;97.40;;;;;;4724179;30;20055;-86
2022/04/18 12:40:56;;;;;;;3.60;2.90;;;19.80;97.10;;;;;;4723485;30;20056;-85
2022/04/18 12:43:28;;;;;;;4.57;3.15;;;19.80;97.00;;;;;;4723989;30;20406;-85
2022/04/18 12:46:07;;;;;;;4.55;3.00;;;19.90;95.90;;;;;;4723628;30;20105;-85
2022/04/18 12:48:34;;;;;;;6.45;3.38;;;19.90;96.30;;;;;;4723756;30;20051;-84
2022/04/18 12:51:05;;;;;;;5.40;3.92;;;19.90;97.50;;;;;;4723683;30;20095;-86
2022/04/18 12:53:53;;;;;;;4.45;3.72;;;20.00;95.60;;;;;;4710415;30;20056;-86
2022/04/18 12:56:23;;;;;;;4.55;3.55;;;20.20;95.90;;;;;;4732941;30;20055;-89
2022/04/18 12:59:01;;;;;;;4.10;3.53;;;19.90;96.00;;;;;;4725029;30;20499;-88
2022/04/18 13:01:34;;;;;;;4.20;3.63;;;20.10;96.00;;;;;;4723783;30;20080;-85
2022/04/18 13:04:02;;;;;;;4.10;3.57;;;20.00;97.40;;;;;;4723992;30;20139;-87
2022/04/18 13:06:32;;;;;;;5.55;3.83;;;20.20;95.50;;;;;;4712925;30;20098;-88
2022/04/18 13:09:08;;;;;;;6.00;3.72;;;20.50;97.00;;;;;;4715222;30;20120;-89
2022/04/18 13:11:45;;;;;;;4.82;3.50;;;20.40;94.80;;;;;;4706096;30;20131;-89
2022/04/18 13:14:13;;;;;;;3.30;3.00;;;20.40;95.50;;;;;;4719674;30;20118;-90
2022/04/18 13:16:40;;;;;;;4.50;3.80;;;20.20;95.20;;;;;;4721695;30;20121;-87
2022/04/18 13:19:12;;;;;;;8.00;3.65;;;20.70;96.80;;;;;;4723401;30;20058;-89
2022/04/18 13:21:39;;;;;;;6.78;3.72;;;20.70;95.20;;;;;;4738209;30;20060;-90
2022/04/18 13:24:06;;;;;;;3.85;3.55;;;;;;;;;;4707155;30;20048;-90
2022/04/18 13:26:33;;;;;;;3.45;3.15;;;20.60;95.10;;;;;;4736073;30;20048;-88
2022/04/18 13:28:59;;;;;;;3.92;3.50;;;;;;;;;;4717936;30;20056;-89
2022/04/18 13:31:26;;;;;;;3.97;3.42;;;20.80;94.80;;;;;;4748894;30;20171;-86
2022/04/18 13:33:53;;;;;;;4.00;3.60;;;;;;;;;;4766941;30;20044;-91
2022/04/18 13:36:33;;;;;;;4.35;3.28;;;20.70;95.80;;;;;;4750077;30;20052;-89
2022/04/18 13:39:12;;;;;;;5.10;3.30;;;20.90;94.00;;;;;;4731399;30;20135;-85
2022/04/18 13:41:56;;;;;;;4.40;3.60;;;20.90;94.50;;;;;;4726787;30;20083;-86
2022/04/18 13:44:25;;;;;;;6.53;3.85;;;21.00;95.50;;;;;;4738529;30;20059;-86
2022/04/18 13:46:51;;;;;;;3.95;3.55;;;;;;;;;;4740554;30;20056;-87
2022/04/18 13:49:17;;;;;;;3.22;2.92;;;;;;;;;;4753043;30;20044;-87
2022/04/18 13:51:43;;;;;;;4.90;3.10;;;;;;;;;;4738232;30;20172;-86
2022/04/18 13:54:09;;;;;;;4.13;3.75;;;20.90;94.80;;;;;;4756639;30;20060;-87
2022/04/18 13:56:35;;;;;;;4.10;3.22;;;;;;;;;;4728222;30;20137;-88
2022/04/18 13:59:03;;;;;;;4.82;3.50;;;21.10;92.70;;;;;;4731352;30;20059;-88
2022/04/18 14:01:30;;;;;;;3.38;2.95;;;;;;;;;;4724812;30;20052;-85
2022/04/18 14:03:56;;;;;;;4.45;3.22;;;;;;;;;;4733512;30;20063;-87
2022/04/18 14:06:26;;;;;;;18.70;3.33;;;;;;;;;;4735935;30;20052;-89
2022/04/18 14:08:52;;;;;;;4.28;3.88;;;21.30;94.60;;;;;;4720136;30;20076;-88
2022/04/18 14:11:18;;;;;;;6.65;3.25;;;;;;;;;;4722902;30;20136;-88
2022/04/18 14:13:44;;;;;;;6.57;3.75;;;21.70;94.70;;;;;;4752784;30;20510;-88
2022/04/18 14:21:40;;;;;;;5.40;3.85;;;;;;;;;;4753613;30;20143;-90
2022/04/18 14:24:08;;;;;;;3.75;3.45;;;22.00;94.40;;;;;;4740417;30;20390;-90
2022/04/18 14:26:35;;;;;;;5.18;3.63;;;;;;;;;;4736226;30;20123;-89
2022/04/18 14:29:01;;;;;;;5.68;3.58;;;21.80;94.40;;;;;;4736749;30;20084;-88
2022/04/18 14:31:27;;;;;;;3.65;3.35;;;;;;;;;;4718581;30;20084;-87
2022/04/18 14:33:53;;;;;;;5.10;3.75;;;22.00;94.80;;;;;;4720034;30;20403;-90
2022/04/18 14:36:19;;;;;;;3.50;3.20;;;22.60;94.80;;;;;;4734169;30;20052;-89
2022/04/18 14:38:48;;;;;;;4.22;3.22;;;22.30;93.50;;;;;;4711275;30;20048;-89
2022/04/18 14:41:14;;;;;;;6.07;4.00;;;22.30;93.50;;;;;;4751799;30;20128;-86
2022/04/18 14:43:40;;;;;;;3.75;3.45;;;22.30;92.20;;;;;;4723347;30;20052;-88
2022/04/18 14:46:13;;;;;;;5.03;3.42;;;22.40;92.60;;;;;;4752702;30;20055;-88
2022/04/18 14:48:52;;;;;;;;;;;;;;;;;;;;;
2022/04/18 14:51:22;;;;;;;3.67;3.28;;;22.50;93.30;;;;;;4737455;30;20107;-90
2022/04/18 14:53:52;;;;;;;4.57;3.80;;;22.30;92.60;;;;;;4720961;30;20060;-89
2022/04/18 14:56:18;;;;;;;4.20;3.80;;;;;;;;;;4733162;30;20110;-88
2022/04/18 14:58:44;;;;;;;7.03;3.70;;;22.60;93.20;;;;;;4717097;30;20056;-88
2022/04/18 15:01:12;;;;;;;5.05;3.58;;;22.60;92.60;;;;;;4737291;30;20044;-89
2022/04/18 15:03:45;;;;;;;4.07;3.67;;;22.70;92.80;;;;;;4739723;30;20085;-88
2022/04/18 15:06:13;;;;;;;3.85;3.47;;;22.60;92.90;;;;;;4750150;30;20509;-89
2022/04/18 15:08:41;;;;;;;5.13;3.45;;;22.70;92.30;;;;;;4743144;30;20498;-89
2022/04/18 15:11:07;;;;;;;4.60;3.67;;;22.30;93.60;;;;;;4734087;30;20055;-89
2022/04/18 15:13:56;;;;;;;4.68;3.63;;;23.00;93.10;;;;;;4729228;30;20052;-89
2022/04/18 15:16:30;;;;;;;3.83;3.53;;;22.90;93.00;;;;;;4736890;30;20060;-88
2022/04/18 15:18:58;;;;;;;5.00;3.78;;;23.10;92.60;;;;;;4709097;30;20049;-89